Time;durP1;ratioP1;P1;durP2;ratioP2;P2;SDS_P1;SDS_P2;PMS_P1;PMS_P2;Temp;Humidity;BMP_temperature;BMP_pressure;BME280_temperature;BME280_humidity;BME280_pressure;Samples;Min_cycle;Max_cycle;Signal;HPM_P1;HPM_P2
2022/07/22 00:01:32;;;;;;;12.85;2.67;;;15.80;99.90;;;;;;6098149;23;20042;-72
2022/07/22 00:04:53;;;;;;;9.90;2.17;;;15.70;99.90;;;;;;6162393;23;20022;-73
2022/07/22 00:08:30;;;;;;;9.13;1.90;;;15.70;99.90;;;;;;6102754;23;20118;-73
2022/07/22 00:26:47;;;;;;;7.32;1.65;;;15.70;99.90;;;;;;6013868;23;20506;-74
2022/07/22 00:33:32;;;;;;;10.57;1.60;;;15.70;99.90;;;;;;6080081;23;20077;-72
2022/07/22 00:36:48;;;;;;;9.25;1.88;;;15.80;99.90;;;;;;6066530;23;20026;-73
2022/07/22 00:40:02;;;;;;;13.48;2.63;;;15.80;99.90;;;;;;6058620;23;20437;-74
2022/07/22 00:43:24;;;;;;;;;;;;;;;;;;;;;
2022/07/22 00:54:31;;;;;;;;;;;;;;;;;;;;;
2022/07/22 01:01:24;;;;;;;15.60;2.72;;;15.70;99.90;;;;;;6034479;23;20023;-72
2022/07/22 01:17:49;;;;;;;9.68;1.83;;;15.60;99.90;;;;;;6040526;23;20020;-73
2022/07/22 01:24:20;;;;;;;11.13;2.50;;;15.60;99.90;;;;;;6069923;23;20045;-73
2022/07/22 01:30:44;;;;;;;5.70;1.88;;;15.60;99.90;;;;;;6095486;23;20503;-74
2022/07/22 01:41:11;;;;;;;7.90;2.65;;;15.60;99.90;;;;;;5945999;23;20336;-74
2022/07/22 01:43:54;;;;;;;9.95;2.42;;;15.60;99.90;;;;;;5928791;24;20452;-74
2022/07/22 01:51:13;;;;;;;9.88;1.80;;;15.50;99.90;;;;;;5925854;23;20068;-73
2022/07/22 01:54:43;;;;;;;6.47;1.90;;;15.60;99.90;;;;;;5999588;23;20424;-75
2022/07/22 01:58:23;;;;;;;10.80;2.20;;;15.50;99.90;;;;;;5953196;24;20099;-73
2022/07/22 02:05:02;;;;;;;9.82;2.00;;;15.60;99.90;;;;;;5903859;24;20016;-74
2022/07/22 02:07:48;;;;;;;;;;;15.50;99.90;;;;;;5900728;24;20019;-74
2022/07/22 02:12:00;;;;;;;;;;;;;;;;;;;;;
2022/07/22 02:15:05;;;;;;;10.00;2.45;;;15.50;99.90;;;;;;5932899;24;20051;-74
2022/07/22 02:18:48;;;;;;;7.43;1.98;;;15.50;99.90;;;;;;6005641;23;20017;-74
2022/07/22 02:29:21;;;;;;;;;;;;;;;;;;;;;
2022/07/22 02:32:23;;;;;;;6.00;1.83;;;15.50;99.90;;;;;;6185940;23;20098;-74
2022/07/22 02:39:55;;;;;;;6.78;1.60;;;15.50;99.90;;;;;;6154597;23;20039;-74
2022/07/22 02:43:58;;;;;;;;;;;;;;;;;;;;;
2022/07/22 02:47:03;;;;;;;6.32;1.95;;;15.50;99.90;;;;;;6090839;23;20021;-74
2022/07/22 02:49:49;;;;;;;6.85;1.90;;;15.50;99.90;;;;;;6034817;23;20012;-74
2022/07/22 02:52:53;;;;;;;6.30;1.40;;;15.40;99.90;;;;;;5985794;23;20022;-75
2022/07/22 02:55:58;;;;;;;6.40;1.83;;;15.40;99.90;;;;;;6037020;23;20019;-74
2022/07/22 02:59:34;;;;;;;7.43;1.40;;;15.50;99.90;;;;;;6017027;23;20057;-74
2022/07/22 03:06:10;;;;;;;10.40;1.58;;;15.40;99.90;;;;;;6007164;23;20019;-74
2022/07/22 03:08:56;;;;;;;8.45;1.60;;;15.40;99.90;;;;;;6037169;23;20011;-73
2022/07/22 03:12:05;;;;;;;;;;;;;;;;;;;;;
2022/07/22 03:19:17;;;;;;;9.35;2.03;;;15.70;99.90;;;;;;6094727;23;20384;-74
2022/07/22 03:22:46;;;;;;;11.00;1.90;;;15.40;99.90;;;;;;5981968;23;20025;-73
2022/07/22 03:26:13;;;;;;;6.20;1.92;;;15.50;99.90;;;;;;6080465;23;20015;-74
2022/07/22 03:29:37;;;;;;;10.02;1.80;;;15.40;99.90;;;;;;6011462;23;20030;-75
2022/07/22 03:32:52;;;;;;;13.30;2.67;;;15.50;99.90;;;;;;6076260;23;20064;-74
2022/07/22 03:36:12;;;;;;;11.85;2.50;;;15.50;99.90;;;;;;5988141;23;20399;-74
2022/07/22 03:42:50;;;;;;;;;;;;;;;;;;;;;
2022/07/22 03:54:14;;;;;;;9.77;1.80;;;15.50;99.90;;;;;;6094324;23;20017;-73
2022/07/22 03:57:29;;;;;;;7.75;1.45;;;15.50;99.90;;;;;;6066534;23;20019;-74
2022/07/22 04:01:09;;;;;;;5.47;1.90;;;15.60;99.90;;;;;;6067062;23;20014;-74
2022/07/22 04:04:07;;;;;;;6.78;1.48;;;15.50;99.90;;;;;;5953703;24;20433;-74
2022/07/22 04:07:31;;;;;;;7.10;1.48;;;15.50;99.90;;;;;;5879649;24;20153;-75
2022/07/22 04:10:39;;;;;;;8.68;1.77;;;15.50;99.90;;;;;;5930081;24;20091;-73
2022/07/22 04:27:40;;;;;;;5.88;1.70;;;15.50;99.90;;;;;;5997743;23;20020;-74
2022/07/22 04:30:40;;;;;;;12.52;2.30;;;15.50;99.90;;;;;;5927965;23;20130;-73
2022/07/22 04:33:23;;;;;;;6.95;1.83;;;15.50;99.90;;;;;;5986423;23;20071;-74
2022/07/22 04:36:11;;;;;;;6.63;1.80;;;15.50;99.90;;;;;;5981459;24;20087;-74
2022/07/22 04:43:09;;;;;;;8.35;2.58;;;15.60;99.90;;;;;;5821990;24;20060;-75
2022/07/22 04:53:12;;;;;;;6.57;2.17;;;15.70;99.90;;;;;;5984508;23;20052;-73
2022/07/22 04:56:45;;;;;;;12.27;2.13;;;15.70;99.90;;;;;;6038743;23;20150;-74
2022/07/22 04:59:51;;;;;;;;;;;;;;;;;;;;;
2022/07/22 05:03:08;;;;;;;7.30;2.00;;;15.70;99.90;;;;;;6042113;23;20441;-74
2022/07/22 05:09:17;;;;;;;8.32;1.80;;;15.80;99.90;;;;;;6114670;23;20343;-74
2022/07/22 05:16:15;;;;;;;4.85;1.60;;;15.90;99.90;;;;;;6001443;23;20260;-74
2022/07/22 05:20:10;;;;;;;;;;;;;;;;;;;;;
2022/07/22 05:30:47;;;;;;;6.75;1.90;;;16.00;99.90;;;;;;5844282;24;20022;-74
2022/07/22 05:33:30;;;;;;;8.13;1.90;;;16.00;99.90;;;;;;5911142;24;20031;-74
2022/07/22 05:39:34;;;;;;;5.22;1.58;;;16.10;99.90;;;;;;5949594;24;20017;-75
2022/07/22 05:42:08;;;;;;;8.07;1.88;;;16.20;99.90;;;;;;5964843;23;20062;-76
2022/07/22 05:44:39;;;;;;;8.45;1.90;;;16.20;99.90;;;;;;6019934;23;20101;-75
2022/07/22 05:50:41;;;;;;;10.45;1.98;;;16.30;99.90;;;;;;6065955;23;20094;-75
2022/07/22 05:53:10;;;;;;;7.68;1.80;;;16.30;99.90;;;;;;6042225;23;20047;-74
2022/07/22 05:55:53;;;;;;;5.18;1.58;;;16.40;99.90;;;;;;6042298;23;20311;-74
2022/07/22 05:58:18;;;;;;;9.18;2.45;;;16.40;99.90;;;;;;6018767;23;20033;-67
2022/07/22 06:00:44;;;;;;;6.45;1.83;;;16.40;99.90;;;;;;6097078;23;20488;-67
2022/07/22 06:03:10;;;;;;;9.18;2.10;;;16.50;99.90;;;;;;6105365;23;20135;-67
2022/07/22 06:05:36;;;;;;;4.55;1.45;;;16.60;99.90;;;;;;6130447;23;20017;-67
2022/07/22 06:08:02;;;;;;;13.57;1.90;;;16.60;99.90;;;;;;6106130;23;20025;-67
2022/07/22 06:10:28;;;;;;;7.35;1.70;;;16.70;99.90;;;;;;6106356;23;20436;-67
2022/07/22 06:12:53;;;;;;;4.95;1.20;;;16.70;99.90;;;;;;6106056;23;20017;-67
2022/07/22 06:15:19;;;;;;;4.65;1.35;;;16.80;99.90;;;;;;6145776;23;20017;-67
2022/07/22 06:17:45;;;;;;;6.85;1.40;;;16.80;99.90;;;;;;6155334;23;20009;-67
2022/07/22 06:20:12;;;;;;;6.65;1.65;;;16.80;99.90;;;;;;6155157;23;20025;-67
2022/07/22 06:22:40;;;;;;;5.07;1.23;;;16.90;99.90;;;;;;6154730;23;20017;-67
2022/07/22 06:25:06;;;;;;;3.95;1.20;;;16.90;99.90;;;;;;6130199;23;20005;-67
2022/07/22 06:27:32;;;;;;;8.82;1.50;;;17.00;99.90;;;;;;6155168;23;20013;-67
2022/07/22 06:29:57;;;;;;;4.22;1.30;;;17.10;99.90;;;;;;6155147;23;20421;-67
2022/07/22 06:32:23;;;;;;;4.60;1.77;;;17.10;99.90;;;;;;6130633;23;20424;-67
2022/07/22 06:34:49;;;;;;;3.78;1.65;;;17.20;99.90;;;;;;6154989;23;20421;-68
2022/07/22 06:37:15;;;;;;;9.65;1.35;;;17.20;99.90;;;;;;6156525;23;20018;-68
2022/07/22 06:39:40;;;;;;;3.22;1.42;;;17.20;99.90;;;;;;6130522;23;20425;-68
2022/07/22 06:42:07;;;;;;;4.93;1.10;;;17.20;99.90;;;;;;6179745;23;20044;-68
2022/07/22 06:44:32;;;;;;;5.82;1.50;;;17.20;99.90;;;;;;6154587;23;20018;-68
2022/07/22 06:46:58;;;;;;;6.10;1.20;;;17.20;99.90;;;;;;6154898;23;20092;-68
2022/07/22 06:49:24;;;;;;;10.10;1.48;;;17.20;99.90;;;;;;6106083;23;20022;-71
2022/07/22 06:51:49;;;;;;;5.50;1.15;;;17.20;99.90;;;;;;6156505;23;20013;-67
2022/07/22 06:54:16;;;;;;;10.77;1.77;;;17.20;99.90;;;;;;6156122;23;20010;-68
2022/07/22 06:56:41;;;;;;;6.93;1.52;;;17.10;99.90;;;;;;6156552;23;20092;-66
2022/07/22 06:59:07;;;;;;;5.00;1.38;;;17.20;99.90;;;;;;6156390;23;20374;-67
2022/07/22 07:01:33;;;;;;;6.38;1.20;;;17.00;99.90;;;;;;6155198;23;20017;-71
2022/07/22 07:04:02;;;;;;;5.88;1.42;;;16.90;99.90;;;;;;6154770;23;20017;-68
2022/07/22 07:06:27;;;;;;;4.95;2.03;;;16.90;99.90;;;;;;6156732;23;20020;-67
2022/07/22 07:08:53;;;;;;;4.38;1.02;;;16.90;99.90;;;;;;6154087;23;20092;-67
2022/07/22 07:11:19;;;;;;;5.70;1.20;;;16.90;99.90;;;;;;6155518;23;20010;-68
2022/07/22 07:13:44;;;;;;;6.10;1.58;;;17.00;99.90;;;;;;6158186;23;20059;-67
2022/07/22 07:16:10;;;;;;;8.05;1.67;;;17.00;99.90;;;;;;6161869;23;20374;-67
2022/07/22 07:18:36;;;;;;;8.18;1.52;;;17.10;99.90;;;;;;6161882;23;20024;-68
2022/07/22 07:21:04;;;;;;;10.93;1.98;;;17.20;99.90;;;;;;6188118;23;20056;-67
2022/07/22 07:23:29;;;;;;;6.63;1.10;;;17.30;99.90;;;;;;6161127;23;20534;-67
2022/07/22 07:26:58;;;;;;;;;;;;;;;;;;;;;
2022/07/22 11:46:00;;;;;;;5.72;1.25;;;19.80;99.20;;;;;;6172236;23;20021;-72
2022/07/22 11:56:29;;;;;;;;;;;;;;;;;;;;;
2022/07/22 11:59:17;;;;;;;5.28;1.00;;;19.70;99.50;;;;;;6155048;23;20064;-69
2022/07/22 12:01:49;;;;;;;3.95;0.93;;;19.50;99.50;;;;;;6130875;23;20056;-69
2022/07/22 12:05:15;;;;;;;7.30;1.15;;;19.40;99.90;;;;;;6130682;23;20021;-71
2022/07/22 12:23:17;;;;;;;6.30;0.98;;;18.90;99.90;;;;;;6037709;23;20013;-70
2022/07/22 12:26:04;;;;;;;5.30;1.23;;;19.10;99.90;;;;;;6025032;23;20011;-76
2022/07/22 12:28:41;;;;;;;2.83;1.00;;;19.30;99.90;;;;;;6034067;23;20009;-77
2022/07/22 12:32:22;;;;;;;5.45;0.90;;;19.30;99.90;;;;;;6107699;23;20013;-74
2022/07/22 12:38:32;;;;;;;4.10;1.00;;;19.50;99.90;;;;;;6038007;23;20400;-74
2022/07/22 12:41:21;;;;;;;4.50;1.17;;;19.60;99.90;;;;;;6104801;23;20440;-69
2022/07/22 12:43:48;;;;;;;5.43;0.90;;;19.50;99.90;;;;;;6127867;23;20076;-70
2022/07/22 12:46:13;;;;;;;4.53;1.00;;;19.60;99.90;;;;;;6154734;23;20447;-70
2022/07/22 12:48:52;;;;;;;3.75;0.93;;;19.60;99.90;;;;;;6129549;23;20052;-72
2022/07/22 12:51:21;;;;;;;4.88;1.13;;;19.70;99.90;;;;;;6127212;23;20348;-71
2022/07/22 12:53:59;;;;;;;4.97;1.27;;;19.80;99.90;;;;;;6106657;23;20332;-71
2022/07/22 12:56:25;;;;;;;7.13;1.10;;;19.90;99.90;;;;;;6130495;23;20020;-71
2022/07/22 12:58:50;;;;;;;8.55;1.33;;;20.00;99.90;;;;;;6157046;23;20009;-73
2022/07/22 13:01:16;;;;;;;7.57;1.00;;;20.20;99.90;;;;;;6129689;23;20017;-71
2022/07/22 13:03:42;;;;;;;5.68;0.80;;;20.20;99.90;;;;;;6129212;23;20021;-72
2022/07/22 13:06:13;;;;;;;2.83;0.85;;;20.40;99.90;;;;;;6128984;23;20024;-75
2022/07/22 13:08:44;;;;;;;4.72;1.00;;;20.30;99.90;;;;;;6097038;23;20020;-82
2022/07/22 13:18:41;;;;;;;8.40;1.08;;;19.60;99.90;;;;;;6012169;23;20403;-71
2022/07/22 13:21:09;;;;;;;4.32;1.00;;;19.50;99.90;;;;;;6011702;23;20022;-69
2022/07/22 13:23:55;;;;;;;4.43;1.20;;;19.50;99.90;;;;;;5988489;23;20015;-69
2022/07/22 13:26:25;;;;;;;5.13;1.15;;;19.30;99.90;;;;;;5989446;23;20354;-68
2022/07/22 13:28:57;;;;;;;3.88;1.00;;;19.20;99.90;;;;;;6012067;23;20022;-70
2022/07/22 13:34:43;;;;;;;3.13;0.80;;;19.20;99.90;;;;;;6035176;23;20079;-72
2022/07/22 13:37:09;;;;;;;3.95;0.90;;;19.30;99.90;;;;;;6012089;23;20456;-74
2022/07/22 13:39:41;;;;;;;3.58;1.00;;;19.30;99.90;;;;;;6051269;23;20459;-73
2022/07/22 13:42:09;;;;;;;4.63;1.45;;;19.20;99.90;;;;;;6103758;23;20014;-74
2022/07/22 13:44:50;;;;;;;4.75;0.82;;;19.10;99.90;;;;;;6099204;23;20463;-75
2022/07/22 13:51:07;;;;;;;23.75;1.75;;;19.20;99.90;;;;;;6126227;23;20072;-73
2022/07/22 13:53:41;;;;;;;3.35;0.90;;;19.40;99.90;;;;;;6124635;23;20464;-72
2022/07/22 13:59:51;;;;;;;7.13;1.33;;;19.60;99.90;;;;;;6126517;23;20020;-68
2022/07/22 14:02:17;;;;;;;4.70;1.13;;;19.60;99.90;;;;;;6126722;23;20010;-67
2022/07/22 14:04:42;;;;;;;5.70;1.20;;;19.50;99.90;;;;;;6123686;23;20025;-67
2022/07/22 14:07:08;;;;;;;7.00;1.33;;;19.50;99.90;;;;;;6124784;23;20022;-67
2022/07/22 14:09:34;;;;;;;7.20;1.10;;;19.60;99.90;;;;;;6125157;23;20014;-70
2022/07/22 14:11:59;;;;;;;7.90;1.02;;;19.70;99.90;;;;;;6125051;23;20014;-69
2022/07/22 14:14:25;;;;;;;6.60;1.38;;;19.50;99.90;;;;;;6124641;23;20018;-69
2022/07/22 14:16:51;;;;;;;8.43;1.17;;;19.40;99.90;;;;;;6125329;23;20050;-68
2022/07/22 14:19:30;;;;;;;4.28;1.15;;;19.40;99.90;;;;;;6125085;23;20029;-71
2022/07/22 14:21:56;;;;;;;6.22;1.10;;;19.30;99.90;;;;;;6100570;23;20026;-70
2022/07/22 14:24:26;;;;;;;;;;;19.30;99.90;;;;;;6125004;23;20021;-70
2022/07/22 14:27:30;;;;;;;6.35;1.33;;;19.30;99.90;;;;;;6099591;23;19951;-70
2022/07/22 14:29:56;;;;;;;5.10;1.02;;;19.20;99.90;;;;;;6123650;23;20025;-70
2022/07/22 14:32:22;;;;;;;3.45;0.90;;;19.20;99.90;;;;;;6125991;23;20014;-70
2022/07/22 14:35:08;;;;;;;4.85;0.93;;;19.30;99.90;;;;;;6125962;23;20045;-70
2022/07/22 14:37:44;;;;;;;3.90;1.20;;;19.40;99.90;;;;;;6104483;23;20021;-71
2022/07/22 14:40:27;;;;;;;5.78;1.00;;;19.60;99.90;;;;;;6124181;23;20480;-72
2022/07/22 14:47:43;;;;;;;;;;;;;;;;;;;;;
2022/07/22 14:54:22;;;;;;;3.17;0.98;;;19.10;99.90;;;;;;6012336;23;20063;-70
2022/07/22 15:12:34;;;;;;;9.48;1.25;;;18.10;99.90;;;;;;5902166;24;20025;-73
2022/07/22 15:40:31;;;;;;;6.03;0.90;;;18.50;99.90;;;;;;6161903;23;20029;-69
2022/07/22 15:46:49;;;;;;;3.38;0.73;;;18.40;99.90;;;;;;6171524;23;20538;-70
2022/07/22 15:54:18;;;;;;;;;;;;;;;;;;;;;
2022/07/22 16:01:17;;;;;;;3.58;0.80;;;18.40;99.90;;;;;;6126326;23;20036;-77
2022/07/22 16:33:55;;;;;;;5.10;1.00;;;18.10;99.90;;;;;;6210989;23;20033;-78
2022/07/22 16:37:18;;;;;;;5.78;1.92;;;18.10;99.90;;;;;;6163026;23;20058;-75
2022/07/22 16:41:00;;;;;;;;;;;;;;;;;;;;;
2022/07/22 16:43:57;;;;;;;5.30;0.90;;;18.10;99.90;;;;;;6084934;23;20020;-72
2022/07/22 18:38:26;;;;;;;2.97;0.90;;;17.60;99.90;;;;;;6151710;23;20022;-68
2022/07/22 18:41:05;;;;;;;5.60;1.40;;;17.50;99.90;;;;;;6103745;23;20084;-71
2022/07/22 18:43:41;;;;;;;6.93;1.52;;;17.50;99.90;;;;;;6122036;23;20525;-70
2022/07/22 18:57:42;;;;;;;6.72;1.00;;;17.50;99.90;;;;;;6153145;23;20167;-70
2022/07/22 19:00:46;;;;;;;5.75;1.10;;;17.50;99.90;;;;;;6128718;23;20100;-67
2022/07/22 19:19:27;;;;;;;5.15;1.20;;;17.10;99.90;;;;;;5983431;23;19995;-69
2022/07/22 19:22:24;;;;;;;5.70;1.35;;;17.10;99.90;;;;;;5968886;23;20020;-69
2022/07/22 19:25:56;;;;;;;3.90;1.20;;;17.00;99.90;;;;;;5961629;23;20443;-69
2022/07/22 19:36:32;;;;;;;4.97;1.08;;;16.90;99.90;;;;;;6151847;23;20021;-74
2022/07/22 20:11:52;;;;;;;6.82;1.40;;;16.10;99.90;;;;;;6182688;23;20017;-74
2022/07/22 20:49:08;;;;;;;8.98;1.92;;;15.30;99.90;;;;;;6216344;23;20099;-75
2022/07/22 20:52:04;;;;;;;8.07;1.73;;;15.20;99.90;;;;;;6165454;23;20104;-77
2022/07/22 20:59:57;;;;;;;;;;;;;;;;;;;;;
2022/07/22 21:09:21;;;;;;;3.75;1.90;;;14.90;99.90;;;;;;6193021;23;20028;-73
